createdAt,value
2022-12-14T00:00:49.022Z,100.55
2022-12-14T00:03:23.260Z,120.90
2022-12-14T00:05:57.342Z,109.47
2022-12-14T00:08:34.301Z,98.45
2022-12-14T00:11:14.408Z,102.55
2022-12-14T00:13:49.204Z,112.13
2022-12-14T00:16:23.443Z,107.70
2022-12-14T00:18:57.953Z,103.88
2022-12-14T00:21:32.264Z,107.50
2022-12-14T00:24:07.699Z,103.47
2022-12-14T00:26:44.973Z,112.07
2022-12-14T00:29:17.993Z,104.10
2022-12-14T00:31:52.909Z,94.45
2022-12-14T00:34:27.252Z,109.35
2022-12-14T00:37:01.476Z,106.22
2022-12-14T00:39:35.243Z,98.30
2022-12-14T00:42:12.115Z,95.90
2022-12-14T00:44:46.619Z,102.72
2022-12-14T00:47:21.495Z,99.17
2022-12-14T00:49:55.540Z,96.65
2022-12-14T00:52:29.188Z,96.43
2022-12-14T00:55:05.148Z,91.13
2022-12-14T01:00:18.983Z,96.97
2022-12-14T01:02:54.213Z,97.43
2022-12-14T01:05:28.954Z,97.38
2022-12-14T01:08:03.149Z,98.75
2022-12-14T01:10:37.062Z,101.95
2022-12-14T01:13:13.808Z,108.45
2022-12-14T01:15:48.542Z,114.72
2022-12-14T01:18:23.066Z,95.60
2022-12-14T01:20:58.833Z,96.57
2022-12-14T01:23:33.491Z,99.03
2022-12-14T01:26:07.029Z,97.28
2022-12-14T01:28:44.347Z,103.97
2022-12-14T01:31:19.635Z,94.85
2022-12-14T01:33:54.348Z,100.55
2022-12-14T01:36:29.008Z,97.75
2022-12-14T01:39:04.515Z,84.40
2022-12-14T01:41:40.237Z,100.07
2022-12-14T01:44:44.423Z,95.93
2022-12-14T01:47:23.263Z,94.65
2022-12-14T01:49:59.806Z,94.70
2022-12-14T01:52:37.583Z,95.95
2022-12-14T01:55:13.041Z,96.85
2022-12-14T01:57:50.285Z,102.35
2022-12-14T02:00:24.826Z,95.80
2022-12-14T02:03:03.556Z,94.63
2022-12-14T02:05:37.970Z,101.35
2022-12-14T02:08:12.334Z,98.70
2022-12-14T02:10:46.536Z,92.18
2022-12-14T02:13:21.939Z,96.70
2022-12-14T02:15:52.660Z,106.97
2022-12-14T02:18:30.816Z,95.60
2022-12-14T02:21:21.447Z,93.93
2022-12-14T02:24:33.328Z,101.73
2022-12-14T02:27:16.851Z,98.00
2022-12-14T02:29:50.775Z,99.50
2022-12-14T02:32:36.827Z,94.33
2022-12-14T02:35:14.378Z,90.55
2022-12-14T02:37:52.052Z,97.82
2022-12-14T02:40:28.766Z,98.15
2022-12-14T02:43:08.822Z,91.25
2022-12-14T02:45:44.393Z,98.40
2022-12-14T02:48:22.291Z,97.75
2022-12-14T02:50:58.571Z,94.68
2022-12-14T02:53:36.264Z,93.88
2022-12-14T02:56:11.510Z,93.30
2022-12-14T02:58:46.824Z,96.67
2022-12-14T03:01:23.538Z,81.55
2022-12-14T03:04:01.068Z,96.88
2022-12-14T03:06:35.497Z,90.30
2022-12-14T03:09:08.189Z,94.75
2022-12-14T03:11:45.295Z,87.70
2022-12-14T03:14:22.816Z,86.53
2022-12-14T03:16:57.685Z,93.80
2022-12-14T03:19:37.494Z,85.90
2022-12-14T03:22:13.328Z,99.80
2022-12-14T03:24:49.511Z,91.10
2022-12-14T03:27:25.654Z,92.03
2022-12-14T03:30:02.283Z,89.88
2022-12-14T03:32:37.017Z,93.60
2022-12-14T03:35:16.280Z,79.13
2022-12-14T03:37:53.367Z,84.15
2022-12-14T03:40:27.442Z,102.35
2022-12-14T03:43:03.009Z,88.07
2022-12-14T03:45:40.052Z,93.22
2022-12-14T03:48:17.703Z,92.43
2022-12-14T03:50:56.219Z,94.15
2022-12-14T03:53:32.992Z,95.47
2022-12-14T03:56:09.399Z,96.80
2022-12-14T03:58:50.050Z,83.05
2022-12-14T04:01:31.882Z,88.63
2022-12-14T04:04:08.616Z,90.25
2022-12-14T04:06:48.943Z,89.90
2022-12-14T04:09:30.620Z,88.93
2022-12-14T04:12:20.003Z,93.55
2022-12-14T04:15:08.451Z,90.95
2022-12-14T04:17:54.898Z,82.93
2022-12-14T04:23:12.946Z,90.13
2022-12-14T04:26:00.535Z,92.00
2022-12-14T04:28:49.197Z,87.68
2022-12-14T04:31:24.345Z,96.18
2022-12-14T04:33:58.576Z,100.50
2022-12-14T04:36:35.297Z,105.07
2022-12-14T04:39:14.655Z,102.57
2022-12-14T04:41:51.416Z,96.95
2022-12-14T04:44:25.818Z,129.60
2022-12-14T04:47:00.179Z,125.20
2022-12-14T04:49:36.728Z,122.03
2022-12-14T04:52:14.014Z,97.78
2022-12-14T04:54:52.719Z,88.35
2022-12-14T04:57:30.211Z,88.55
2022-12-14T05:00:05.700Z,92.90
2022-12-14T05:02:42.793Z,82.20
2022-12-14T05:05:19.005Z,89.10
2022-12-14T05:07:55.607Z,94.72
2022-12-14T05:10:37.608Z,93.60
2022-12-14T05:13:14.633Z,101.47
2022-12-14T05:15:51.401Z,102.00
2022-12-14T05:18:25.757Z,98.70
2022-12-14T05:21:00.841Z,100.90
2022-12-14T05:23:33.775Z,106.85
2022-12-14T05:26:11.939Z,112.83
2022-12-14T05:28:50.390Z,113.70
2022-12-14T05:31:25.534Z,106.95
2022-12-14T05:33:59.306Z,106.07
2022-12-14T05:36:33.105Z,107.97
2022-12-14T05:39:07.784Z,98.00
2022-12-14T05:41:47.729Z,90.65
2022-12-14T05:44:25.159Z,115.45
2022-12-14T05:46:59.353Z,95.50
2022-12-14T05:49:33.082Z,103.97
2022-12-14T05:52:08.615Z,136.83
2022-12-14T05:54:43.685Z,143.27
2022-12-14T05:57:21.261Z,268.33
2022-12-14T05:59:55.942Z,355.07
2022-12-14T06:02:32.796Z,391.30
2022-12-14T06:05:03.675Z,502.30
2022-12-14T06:07:39.050Z,377.08
2022-12-14T06:10:13.810Z,205.65
2022-12-14T06:12:50.775Z,201.77
2022-12-14T06:15:30.710Z,145.77
2022-12-14T06:18:05.206Z,513.83
2022-12-14T06:20:39.292Z,261.20
2022-12-14T06:23:13.721Z,126.07
2022-12-14T06:25:55.454Z,114.32
2022-12-14T06:28:32.385Z,115.82
2022-12-14T06:31:06.523Z,109.45
2022-12-14T06:33:41.392Z,112.95
2022-12-14T06:36:23.755Z,108.85
2022-12-14T06:38:58.610Z,105.90
2022-12-14T06:41:33.398Z,114.07
2022-12-14T06:44:10.901Z,133.17
2022-12-14T06:46:43.773Z,172.53
2022-12-14T06:49:18.656Z,144.68
2022-12-14T06:51:53.776Z,163.70
2022-12-14T06:54:28.567Z,133.60
2022-12-14T06:57:04.166Z,125.65
2022-12-14T06:59:41.295Z,177.75
2022-12-14T07:02:15.974Z,206.30
2022-12-14T07:04:50.740Z,147.88
2022-12-14T07:07:25.538Z,133.83
2022-12-14T07:09:59.618Z,120.75
2022-12-14T07:12:32.126Z,114.25
2022-12-14T07:15:10.731Z,106.93
2022-12-14T07:17:45.521Z,100.22
2022-12-14T07:20:20.989Z,103.13
2022-12-14T07:22:55.803Z,113.45
2022-12-14T07:25:29.412Z,113.60
2022-12-14T07:28:03.443Z,113.47
2022-12-14T07:30:40.136Z,109.73
2022-12-14T07:33:15.525Z,121.97
2022-12-14T07:35:49.477Z,132.27
2022-12-14T07:38:25.059Z,147.38
2022-12-14T07:41:05.628Z,191.02
2022-12-14T07:43:42.578Z,478.55
2022-12-14T07:46:21.164Z,208.55
2022-12-14T07:48:57.924Z,160.50
2022-12-14T07:51:34.440Z,119.03
2022-12-14T07:54:09.603Z,116.93
2022-12-14T07:56:45.197Z,132.70
2022-12-14T07:59:20.455Z,132.83
2022-12-14T08:01:58.837Z,108.17
2022-12-14T08:04:34.183Z,108.97
2022-12-14T08:07:09.894Z,112.63
2022-12-14T08:09:45.242Z,100.10
2022-12-14T08:12:19.934Z,106.90
2022-12-14T08:14:58.267Z,108.53
2022-12-14T08:17:35.451Z,106.13
2022-12-14T08:20:11.331Z,107.90
2022-12-14T08:25:20.096Z,107.95
2022-12-14T08:27:57.425Z,103.33
2022-12-14T08:30:33.514Z,106.43
2022-12-14T08:33:11.914Z,104.22
2022-12-14T08:35:47.324Z,106.80
2022-12-14T08:38:22.133Z,108.53
2022-12-14T08:40:57.548Z,102.30
2022-12-14T08:43:37.721Z,109.07
2022-12-14T08:46:13.552Z,108.55
2022-12-14T08:48:52.592Z,108.40
2022-12-14T08:51:26.379Z,128.65
2022-12-14T08:54:01.479Z,126.28
2022-12-14T08:56:36.465Z,114.23
2022-12-14T08:59:24.654Z,107.35
2022-12-14T09:02:07.584Z,118.10
2022-12-14T09:07:20.584Z,112.22
2022-12-14T09:09:56.832Z,106.50
2022-12-14T09:12:35.327Z,118.37
2022-12-14T09:15:11.249Z,113.17
2022-12-14T09:20:24.473Z,107.25
2022-12-14T09:23:00.684Z,122.43
2022-12-14T09:25:37.067Z,115.22
2022-12-14T09:28:11.643Z,127.22
2022-12-14T09:30:47.016Z,115.53
2022-12-14T09:33:22.603Z,134.93
2022-12-14T09:36:03.340Z,120.78
2022-12-14T09:38:41.413Z,130.00
2022-12-14T09:41:35.265Z,136.25
2022-12-14T09:46:58.924Z,121.40
2022-12-14T09:49:34.986Z,119.60
2022-12-14T09:52:16.267Z,117.93
2022-12-14T09:54:50.508Z,111.90
2022-12-14T09:57:28.060Z,111.13
2022-12-14T10:00:02.977Z,116.10
2022-12-14T10:02:54.043Z,113.18
2022-12-14T10:05:39.523Z,113.28
2022-12-14T10:08:20.672Z,114.50
2022-12-14T10:11:00.206Z,117.03
2022-12-14T10:13:40.951Z,116.07
2022-12-14T10:16:22.050Z,114.57
2022-12-14T10:19:07.228Z,122.95
2022-12-14T10:21:47.957Z,110.65
2022-12-14T10:24:29.226Z,111.82
2022-12-14T10:27:04.199Z,111.57
2022-12-14T10:29:40.394Z,110.63
2022-12-14T10:32:22.958Z,110.43
2022-12-14T10:35:00.784Z,108.97
2022-12-14T10:37:35.443Z,114.45
2022-12-14T10:40:32.598Z,116.80
2022-12-14T10:43:38.036Z,109.05
2022-12-14T10:46:18.305Z,117.93
2022-12-14T10:48:58.167Z,113.30
2022-12-14T10:51:34.775Z,105.35
2022-12-14T10:54:13.914Z,109.88
2022-12-14T10:56:52.748Z,110.47
2022-12-14T10:59:35.146Z,108.35
2022-12-14T11:04:54.159Z,108.50
2022-12-14T11:07:30.742Z,102.15
2022-12-14T11:10:17.518Z,105.43
2022-12-14T11:13:18.697Z,106.38
2022-12-14T11:15:54.949Z,103.13
2022-12-14T11:18:33.518Z,104.65
2022-12-14T11:21:10.456Z,103.53
2022-12-14T11:23:46.523Z,100.35
2022-12-14T11:29:04.524Z,103.18
2022-12-14T11:31:42.581Z,111.13
2022-12-14T11:34:27.715Z,97.97
2022-12-14T11:37:13.978Z,94.38
2022-12-14T11:39:49.833Z,95.90
2022-12-14T11:42:25.139Z,97.28
2022-12-14T11:45:23.395Z,99.73
2022-12-14T11:48:17.933Z,91.60
2022-12-14T11:50:53.104Z,88.65
2022-12-14T11:53:28.361Z,99.03
2022-12-14T11:56:03.005Z,88.40
2022-12-14T11:58:39.674Z,88.10
2022-12-14T12:01:18.951Z,85.15
2022-12-14T12:03:54.095Z,84.05
2022-12-14T12:06:29.624Z,85.73
2022-12-14T12:09:05.388Z,90.50
2022-12-14T12:11:40.658Z,89.00
2022-12-14T12:14:25.490Z,85.30
2022-12-14T12:17:05.944Z,94.88
2022-12-14T12:19:42.578Z,90.97
2022-12-14T12:22:20.570Z,85.68
2022-12-14T12:25:24.132Z,83.00
2022-12-14T12:27:54.614Z,85.95
2022-12-14T12:30:32.411Z,89.15
2022-12-14T12:33:18.427Z,82.18
2022-12-14T12:35:54.481Z,83.82
2022-12-14T12:38:50.109Z,81.33
2022-12-14T12:41:29.144Z,80.93
2022-12-14T12:44:10.330Z,72.53
2022-12-14T12:47:23.993Z,73.35
2022-12-14T12:49:56.243Z,66.68
2022-12-14T12:52:33.741Z,69.70
2022-12-14T12:55:13.498Z,70.65
2022-12-14T12:57:53.071Z,68.20
2022-12-14T13:00:28.442Z,64.60
2022-12-14T13:03:05.128Z,63.70
2022-12-14T13:05:46.692Z,62.25
2022-12-14T13:08:26.255Z,66.60
2022-12-14T13:14:00.111Z,57.20
2022-12-14T13:22:15.146Z,56.40
2022-12-14T13:24:50.177Z,60.45
2022-12-14T13:27:51.132Z,62.80
2022-12-14T13:30:28.317Z,55.88
2022-12-14T13:33:43.276Z,56.42
2022-12-14T13:36:33.838Z,55.35
2022-12-14T13:39:31.581Z,52.67
2022-12-14T13:42:09.503Z,58.47
2022-12-14T13:44:50.841Z,54.40
2022-12-14T13:47:26.473Z,56.35
2022-12-14T13:52:56.220Z,57.50
2022-12-14T13:55:29.860Z,59.45
2022-12-14T13:58:24.689Z,69.45
2022-12-14T14:01:04.996Z,71.70
2022-12-14T14:03:51.513Z,59.50
2022-12-14T14:06:40.150Z,65.80
2022-12-14T14:09:44.290Z,57.40
2022-12-14T14:12:40.453Z,54.70
2022-12-14T14:15:47.335Z,49.37
2022-12-14T14:18:34.192Z,51.90
2022-12-14T14:21:42.708Z,56.23
2022-12-14T14:27:04.075Z,54.80
2022-12-14T14:29:39.687Z,51.05
2022-12-14T14:32:37.787Z,53.50
2022-12-14T14:35:26.165Z,47.95
2022-12-14T14:38:03.184Z,61.03
2022-12-14T14:41:14.233Z,56.78
2022-12-14T14:43:33.683Z,59.60
2022-12-14T14:46:07.997Z,62.60
2022-12-14T14:48:46.451Z,59.20
2022-12-14T14:51:22.229Z,58.83
2022-12-14T14:57:37.485Z,66.45
2022-12-14T15:00:14.745Z,51.70
2022-12-14T15:02:53.108Z,73.18
2022-12-14T15:05:42.158Z,68.20
2022-12-14T15:08:23.035Z,61.10
2022-12-14T15:10:58.369Z,69.47
2022-12-14T15:13:34.995Z,61.85
2022-12-14T15:16:24.166Z,71.28
2022-12-14T15:18:57.924Z,67.95
2022-12-14T15:21:32.874Z,65.82
2022-12-14T15:24:13.445Z,75.03
2022-12-14T15:26:46.212Z,101.30
2022-12-14T15:29:25.843Z,90.07
2022-12-14T15:32:02.216Z,74.20
2022-12-14T15:34:37.296Z,73.25
2022-12-14T15:37:17.807Z,91.27
2022-12-14T15:40:05.062Z,81.53
2022-12-14T15:42:41.910Z,102.65
2022-12-14T15:45:18.598Z,113.50
2022-12-14T15:47:54.097Z,77.80
2022-12-14T15:50:30.109Z,59.20
2022-12-14T15:55:48.064Z,61.63
2022-12-14T15:58:31.955Z,75.32
2022-12-14T16:01:24.816Z,66.50
2022-12-14T16:04:02.061Z,65.22
2022-12-14T16:06:41.125Z,63.30
2022-12-14T16:09:19.861Z,60.70
2022-12-14T16:11:58.868Z,117.55
2022-12-14T16:14:36.704Z,133.90
2022-12-14T16:17:14.560Z,84.00
2022-12-14T16:20:02.569Z,126.03
2022-12-14T16:22:39.584Z,104.18
2022-12-14T16:25:21.062Z,86.30
2022-12-14T16:27:58.564Z,139.40
2022-12-14T16:30:35.661Z,295.50
2022-12-14T16:33:10.427Z,255.70
2022-12-14T16:35:44.994Z,256.88
2022-12-14T16:38:22.060Z,382.15
2022-12-14T16:40:57.762Z,307.45
2022-12-14T16:43:37.223Z,272.10
2022-12-14T16:46:19.271Z,152.20
2022-12-14T16:49:23.421Z,114.68
2022-12-14T16:52:09.382Z,92.55
2022-12-14T16:54:46.548Z,95.30
2022-12-14T16:57:28.337Z,79.75
2022-12-14T17:00:09.168Z,72.90
2022-12-14T17:02:44.890Z,72.30
2022-12-14T17:05:20.941Z,71.90
2022-12-14T17:07:57.097Z,65.15
2022-12-14T17:13:09.548Z,64.88
2022-12-14T17:15:58.704Z,95.78
2022-12-14T17:18:35.618Z,115.90
2022-12-14T17:21:12.746Z,104.93
2022-12-14T17:23:51.275Z,90.63
2022-12-14T17:26:27.398Z,78.07
2022-12-14T17:31:49.744Z,74.57
2022-12-14T17:34:23.921Z,80.38
2022-12-14T17:37:01.862Z,76.93
2022-12-14T17:39:38.707Z,76.47
2022-12-14T17:42:14.646Z,77.77
2022-12-14T17:44:53.495Z,75.37
2022-12-14T17:47:31.311Z,70.35
2022-12-14T17:50:07.152Z,69.70
2022-12-14T17:52:43.985Z,77.78
2022-12-14T17:55:20.876Z,80.20
2022-12-14T17:57:56.280Z,84.35
2022-12-14T18:00:45.150Z,89.10
2022-12-14T18:03:22.680Z,79.95
2022-12-14T18:06:01.660Z,68.43
2022-12-14T18:08:39.513Z,73.40
2022-12-14T18:11:13.856Z,65.70
2022-12-14T18:13:49.534Z,72.40
2022-12-14T18:16:25.397Z,69.50
2022-12-14T18:19:03.558Z,67.85
2022-12-14T18:21:39.161Z,71.78
2022-12-14T18:24:15.485Z,69.50
2022-12-14T18:26:50.571Z,66.05
2022-12-14T18:29:27.469Z,61.85
2022-12-14T18:32:06.136Z,66.53
2022-12-14T18:34:45.256Z,74.30
2022-12-14T18:37:27.145Z,76.60
2022-12-14T18:40:09.121Z,72.03
2022-12-14T18:42:45.360Z,80.03
2022-12-14T18:45:22.201Z,78.32
2022-12-14T18:47:59.315Z,81.75
2022-12-14T18:50:42.563Z,79.17
2022-12-14T18:53:19.192Z,73.93
2022-12-14T18:58:31.828Z,77.30
2022-12-14T19:01:09.064Z,85.80
2022-12-14T19:03:46.059Z,85.65
2022-12-14T19:09:22.800Z,93.15
2022-12-14T19:11:55.889Z,95.95
2022-12-14T19:14:32.083Z,87.63
2022-12-14T19:17:08.540Z,95.13
2022-12-14T19:19:45.160Z,90.45
2022-12-14T19:22:27.588Z,89.45
2022-12-14T19:25:05.429Z,104.85
2022-12-14T19:28:25.776Z,99.17
2022-12-14T19:30:36.577Z,98.13
2022-12-14T19:33:13.915Z,103.63
2022-12-14T19:35:51.080Z,139.80
2022-12-14T19:38:29.854Z,113.80
2022-12-14T19:41:06.197Z,119.37
2022-12-14T19:43:41.578Z,143.15
2022-12-14T19:46:20.280Z,158.35
2022-12-14T19:48:55.655Z,235.17
2022-12-14T19:51:31.106Z,207.67
2022-12-14T19:54:10.078Z,116.45
2022-12-14T19:56:46.254Z,109.35
2022-12-14T19:59:26.432Z,101.40
2022-12-14T20:02:02.298Z,92.25
2022-12-14T20:04:41.670Z,88.32
2022-12-14T20:07:17.903Z,100.32
2022-12-14T20:09:55.521Z,96.22
2022-12-14T20:12:33.645Z,101.78
2022-12-14T20:15:10.442Z,86.80
2022-12-14T20:17:49.828Z,95.03
2022-12-14T20:20:20.686Z,84.85
2022-12-14T20:23:01.341Z,84.20
2022-12-14T20:25:56.985Z,81.00
2022-12-14T20:28:33.788Z,85.45
2022-12-14T20:31:09.069Z,87.57
2022-12-14T20:33:47.681Z,95.20
2022-12-14T20:36:23.530Z,95.70
2022-12-14T20:38:59.061Z,95.10
2022-12-14T20:41:37.640Z,90.50
2022-12-14T20:44:16.208Z,106.18
2022-12-14T20:46:52.102Z,95.05
2022-12-14T20:49:30.439Z,81.75
2022-12-14T20:52:02.527Z,101.75
2022-12-14T20:54:37.996Z,102.32
2022-12-14T20:57:15.703Z,117.43
2022-12-14T20:59:51.329Z,118.30
2022-12-14T21:02:26.461Z,104.63
2022-12-14T21:05:02.737Z,104.45
2022-12-14T21:10:15.322Z,90.50
2022-12-14T21:13:00.730Z,91.72
2022-12-14T21:15:38.737Z,96.70
2022-12-14T21:18:24.880Z,100.28
2022-12-14T21:21:06.182Z,110.55
2022-12-14T21:23:45.304Z,98.30
2022-12-14T21:26:26.824Z,98.28
2022-12-14T21:29:05.417Z,105.07
2022-12-14T21:31:40.314Z,115.28
2022-12-14T21:34:20.324Z,108.33
2022-12-14T21:36:55.901Z,101.15
2022-12-14T21:40:02.837Z,103.97
2022-12-14T21:42:47.784Z,110.83
2022-12-14T21:45:29.553Z,110.40
2022-12-14T21:48:22.043Z,156.93
2022-12-14T21:50:58.020Z,135.70
2022-12-14T21:53:35.532Z,104.70
2022-12-14T21:56:37.981Z,105.10
2022-12-14T21:59:30.229Z,99.30
2022-12-14T22:02:20.207Z,97.78
2022-12-14T22:04:56.354Z,97.82
2022-12-14T22:07:34.628Z,95.57
2022-12-14T22:10:18.696Z,98.57
2022-12-14T22:12:59.117Z,102.20
2022-12-14T22:15:38.544Z,97.15
2022-12-14T22:18:20.364Z,84.28
2022-12-14T22:20:56.032Z,101.50
2022-12-14T22:23:28.781Z,98.10
2022-12-14T22:26:05.492Z,102.43
2022-12-14T22:28:39.998Z,99.68
2022-12-14T22:31:16.477Z,110.68
2022-12-14T22:33:55.404Z,121.55
2022-12-14T22:36:30.399Z,102.00
2022-12-14T22:39:05.375Z,104.28
2022-12-14T22:41:39.873Z,105.20
2022-12-14T22:44:15.799Z,105.30
2022-12-14T22:46:51.498Z,113.20
2022-12-14T22:49:28.853Z,97.47
2022-12-14T22:52:04.249Z,91.57
2022-12-14T22:54:39.532Z,95.60
2022-12-14T22:57:15.809Z,88.00
2022-12-14T22:59:52.334Z,95.97
2022-12-14T23:02:25.238Z,83.82
2022-12-14T23:05:05.020Z,75.85
2022-12-14T23:07:40.773Z,99.03
2022-12-14T23:10:28.345Z,104.72
2022-12-14T23:13:15.526Z,77.55
2022-12-14T23:16:00.560Z,84.33
2022-12-14T23:18:47.013Z,100.38
2022-12-14T23:21:32.885Z,98.55
2022-12-14T23:24:23.440Z,95.72
2022-12-14T23:27:10.197Z,100.03
2022-12-14T23:29:56.904Z,94.63
2022-12-14T23:32:43.710Z,104.93
2022-12-14T23:35:30.708Z,112.15
2022-12-14T23:38:19.844Z,115.78
2022-12-14T23:41:05.865Z,90.70
2022-12-14T23:43:55.902Z,105.10
2022-12-14T23:46:42.870Z,93.97
2022-12-14T23:49:29.692Z,106.72
2022-12-14T23:52:16.763Z,104.85
2022-12-14T23:55:04.151Z,91.95
2022-12-14T23:57:50.703Z,88.47
